Time;durP1;ratioP1;P1;durP2;ratioP2;P2;SDS_P1;SDS_P2;PMS_P1;PMS_P2;Temp;Humidity;BMP_temperature;BMP_pressure;BME280_temperature;BME280_humidity;BME280_pressure;Samples;Min_cycle;Max_cycle;Signal;HPM_P1;HPM_P2
2022/01/19 00:08:42;;;;;;;4.10;2.93;;;;;;;-4.66;95.54;100353.28;31397255;28;20471;-76
2022/01/19 00:23:44;;;;;;;4.47;2.53;;;;;;;-4.72;97.64;100352.63;31339331;28;20485;-75
2022/01/19 00:38:46;;;;;;;4.97;2.47;;;;;;;-4.77;96.90;100365.28;31328165;28;20140;-76
2022/01/19 00:53:48;;;;;;;2.73;2.50;;;;;;;-4.76;96.84;100375.56;31301157;28;20052;-76
2022/01/19 01:08:49;;;;;;;8.67;2.70;;;;;;;-4.69;96.81;100383.81;31318159;28;20048;-76
2022/01/19 01:23:51;;;;;;;7.10;3.00;;;;;;;-4.57;96.77;100376.06;31326075;28;20056;-76
2022/01/19 01:38:53;;;;;;;7.53;2.97;;;;;;;-4.48;96.03;100421.88;31320232;28;20049;-75
2022/01/19 01:53:55;;;;;;;5.20;3.10;;;;;;;-4.56;96.34;100432.47;31296038;28;20136;-77
2022/01/19 02:23:59;;;;;;;4.33;3.07;;;;;;;-4.57;95.40;100444.16;31328976;28;20084;-76
2022/01/19 02:54:23;;;;;;;5.07;3.60;;;;;;;-4.40;94.60;100457.44;31364459;28;20530;-76
2022/01/19 03:09:25;;;;;;;5.77;3.80;;;;;;;-4.38;93.30;100468.50;31355619;28;20061;-76
2022/01/19 03:24:27;;;;;;;6.87;4.33;;;;;;;-4.36;91.79;100465.56;31296619;28;20127;-76
2022/01/19 03:39:30;;;;;;;12.27;4.13;;;;;;;-4.23;92.10;100501.75;31378119;28;20144;-75
2022/01/19 03:54:43;;;;;;;7.07;4.30;;;;;;;-4.18;91.93;100515.63;31407798;28;20143;-76
2022/01/19 04:09:45;;;;;;;10.23;4.97;;;;;;;-4.17;90.72;100517.19;31327733;28;20095;-76
2022/01/19 04:24:48;;;;;;;7.83;4.53;;;;;;;-4.16;90.94;100537.31;31327950;28;20049;-75
2022/01/19 05:25:43;;;;;;;4.73;3.30;;;;;;;-4.33;90.23;100621.31;31337917;28;20135;-77
2022/01/19 05:40:45;;;;;;;5.03;3.37;;;;;;;-4.35;90.71;100647.34;31426521;28;20056;-76
2022/01/19 05:55:47;;;;;;;5.80;3.53;;;;;;;-4.34;90.27;100664.81;31352445;28;20689;-76
2022/01/19 06:10:54;;;;;;;4.17;3.07;;;;;;;-4.38;90.45;100663.88;31341824;28;20096;-76
2022/01/19 06:25:56;;;;;;;5.60;3.03;;;;;;;-4.38;90.92;100679.75;31282684;28;20140;-77
2022/01/19 06:40:58;;;;;;;5.80;3.53;;;;;;;-4.29;90.88;100693.84;31353172;28;20112;-77
2022/01/19 06:56:00;;;;;;;12.33;4.63;;;;;;;-4.17;89.84;100702.00;31371806;28;20068;-81
2022/01/19 07:11:02;;;;;;;5.10;3.33;;;;;;;-4.14;88.84;100734.00;31352223;28;20071;-77
2022/01/19 07:26:05;;;;;;;5.03;2.93;;;;;;;-4.00;87.86;100728.59;31381763;28;20055;-79
2022/01/19 07:41:09;;;;;;;10.90;4.00;;;;;;;-4.09;87.62;100741.06;31389751;28;20169;-78
2022/01/19 07:56:11;;;;;;;4.90;3.40;;;;;;;-4.00;87.19;100747.16;31321294;28;20045;-76
2022/01/19 08:11:13;;;;;;;12.90;4.97;;;;;;;-3.75;86.57;100751.03;31303707;28;20478;-77
2022/01/19 08:26:16;;;;;;;8.33;4.20;;;;;;;-3.75;86.02;100744.94;31336021;28;20088;-77
2022/01/19 08:41:18;;;;;;;13.53;6.43;;;;;;;-3.89;87.07;100750.34;31365199;28;20136;-77
2022/01/19 08:56:20;;;;;;;8.07;4.17;;;;;;;-4.03;87.25;100745.16;31370617;28;20138;-77
2022/01/19 09:11:22;;;;;;;5.90;3.97;;;;;;;-3.94;88.94;100748.59;31327874;28;20049;-79
2022/01/19 09:26:24;;;;;;;8.37;4.63;;;;;;;-3.65;85.11;100760.59;31344119;28;20048;-77
2022/01/19 09:41:26;;;;;;;8.13;4.17;;;;;;;-3.68;83.95;100761.19;31359564;28;20055;-78
2022/01/19 09:56:28;;;;;;;8.50;4.93;;;;;;;-3.48;82.97;100755.34;31427673;28;20048;-76
2022/01/19 10:26:34;;;;;;;8.50;3.17;;;;;;;-3.62;80.02;100770.59;31377218;28;20080;-77
2022/01/19 10:41:56;;;;;;;9.83;3.40;;;;;;;-3.53;78.57;100774.03;31314985;28;20152;-76
2022/01/19 10:56:58;;;;;;;7.80;4.73;;;;;;;-3.48;80.50;100777.34;31445411;28;20549;-77
2022/01/19 11:12:19;;;;;;;6.73;4.13;;;;;;;-3.43;79.12;100779.09;31382292;28;20587;-78
2022/01/19 11:27:23;;;;;;;6.13;3.07;;;;;;;-3.47;80.93;100778.91;31379674;28;20147;-77
2022/01/19 12:03:43;;;;;;;4.47;2.97;;;;;;;-3.45;81.92;100786.56;31320281;28;20451;-85
2022/01/19 12:19:08;;;;;;;3.53;3.07;;;;;;;-3.67;83.18;100778.69;31175465;28;20050;-84
2022/01/19 12:34:10;;;;;;;4.57;2.87;;;;;;;-3.85;84.20;100794.53;31215031;28;20081;-86
2022/01/19 12:49:29;;;;;;;6.03;3.07;;;;;;;-3.98;84.54;100800.69;31186095;28;20111;-85
2022/01/19 13:04:33;;;;;;;4.30;2.43;;;;;;;-4.08;86.28;100811.56;31167104;28;20052;-86
2022/01/19 13:19:38;;;;;;;11.27;3.50;;;;;;;-4.09;84.68;100836.53;31120916;28;20137;-85
2022/01/19 13:34:55;;;;;;;6.20;3.73;;;;;;;-4.23;84.88;100835.78;31081447;28;20056;-88
2022/01/19 13:49:58;;;;;;;4.23;2.87;;;;;;;-4.30;84.73;100838.09;31118241;28;20062;-85
2022/01/19 14:05:03;;;;;;;8.03;3.63;;;;;;;-4.57;85.32;100863.59;31115190;28;20046;-85
2022/01/19 14:20:15;;;;;;;6.57;3.43;;;;;;;-4.68;85.47;100882.63;31113847;28;20054;-87
2022/01/19 14:35:36;;;;;;;4.97;4.07;;;;;;;-4.87;83.95;100915.34;31084601;28;20057;-85
2022/01/19 14:50:38;;;;;;;;;;;;;;;-4.91;83.30;100932.09;31070175;28;20050;-85
2022/01/19 15:05:40;;;;;;;14.93;3.43;;;;;;;-5.00;83.05;100936.53;31128597;28;19925;-86
2022/01/19 15:20:42;;;;;;;4.03;3.33;;;;;;;-5.05;83.64;100947.22;31108620;28;20046;-87
2022/01/19 15:35:44;;;;;;;6.60;3.37;;;;;;;-5.02;83.60;100936.03;31123626;28;20049;-85
2022/01/19 15:50:51;;;;;;;4.67;2.97;;;;;;;-5.21;83.31;100949.34;31094998;28;20586;-86
2022/01/19 16:05:54;;;;;;;;;;;;;;;-5.20;82.68;100935.84;31083911;28;20050;-86
2022/01/19 16:20:56;;;;;;;6.63;3.27;;;;;;;-5.20;83.60;100925.25;31087146;28;20032;-87
2022/01/19 16:35:58;;;;;;;5.27;3.90;;;;;;;-5.32;84.23;100930.22;31052018;28;20050;-86
2022/01/19 16:51:08;;;;;;;12.57;5.77;;;;;;;-5.29;83.98;100932.28;31135540;28;20089;-85
2022/01/19 17:06:11;;;;;;;12.93;6.00;;;;;;;-5.42;83.08;100922.44;31132487;28;20060;-87
2022/01/19 17:21:14;;;;;;;16.60;7.70;;;;;;;-5.48;82.95;100931.56;31107130;28;20490;-87
2022/01/19 17:36:16;;;;;;;12.77;6.70;;;;;;;-5.57;81.36;100939.38;31170431;28;20042;-85
2022/01/19 17:51:35;;;;;;;16.13;7.50;;;;;;;-5.57;81.07;100941.22;31158661;28;20515;-87
2022/01/19 18:06:38;;;;;;;9.63;4.70;;;;;;;-5.77;81.11;100946.84;31116430;28;20785;-80
2022/01/19 18:21:40;;;;;;;2.50;2.30;;;;;;;-5.89;80.87;100961.31;31127584;28;20678;-81
2022/01/19 18:36:42;;;;;;;5.27;2.80;;;;;;;-6.15;81.34;100967.28;31119308;28;20045;-83
2022/01/19 18:51:44;;;;;;;7.97;4.07;;;;;;;-6.27;81.86;100972.97;31071354;28;20129;-80
2022/01/19 19:06:48;;;;;;;9.37;3.47;;;;;;;-6.38;81.99;100966.25;31063553;28;20046;-83
2022/01/19 19:21:50;;;;;;;3.20;2.90;;;;;;;-6.41;82.69;100949.09;31116094;28;20052;-80
2022/01/19 19:36:54;;;;;;;5.03;3.70;;;;;;;-6.36;82.67;100956.16;31100010;28;20057;-82
2022/01/19 19:51:56;;;;;;;4.30;3.53;;;;;;;-6.37;82.95;100959.88;31081902;28;20545;-82
2022/01/19 20:07:00;;;;;;;4.93;3.47;;;;;;;-6.39;83.44;100946.19;31100159;28;20054;-82
2022/01/19 20:22:03;;;;;;;6.70;3.50;;;;;;;-6.44;84.24;100935.69;31128987;28;20053;-82
2022/01/19 20:37:05;;;;;;;4.90;3.80;;;;;;;-6.44;85.76;100933.03;31128742;28;20085;-82
2022/01/19 20:52:07;;;;;;;5.23;4.60;;;;;;;-6.55;84.61;100951.66;31141772;28;20060;-81
2022/01/19 21:07:10;;;;;;;7.73;5.60;;;;;;;-6.78;85.66;100968.28;31118893;28;20130;-81
2022/01/19 21:22:12;;;;;;;7.23;4.83;;;;;;;-7.06;84.88;100953.28;31152491;28;20103;-81
2022/01/19 21:37:16;;;;;;;11.83;5.43;;;;;;;-7.29;86.30;100945.06;31074845;28;20049;-80
2022/01/19 21:52:18;;;;;;;9.57;5.90;;;;;;;-7.37;87.17;100935.13;31083881;28;20538;-81
2022/01/19 22:07:20;;;;;;;10.23;5.47;;;;;;;-7.42;87.61;100935.16;31098178;28;20050;-80
2022/01/19 22:22:22;;;;;;;10.23;6.83;;;;;;;-7.40;86.27;100896.13;31139486;28;20089;-83
2022/01/19 22:37:24;;;;;;;8.10;5.73;;;;;;;-7.58;86.66;100891.56;31132649;28;20077;-83
2022/01/19 22:52:26;;;;;;;5.20;4.57;;;;;;;-7.77;88.83;100895.91;31097838;28;20062;-84
2022/01/19 23:07:28;;;;;;;12.23;6.13;;;;;;;-7.68;88.51;100883.72;31075559;28;20065;-83
2022/01/19 23:22:31;;;;;;;4.43;4.03;;;;;;;-8.02;88.27;100879.25;31067043;28;20226;-84
2022/01/19 23:52:44;;;;;;;13.53;6.33;;;;;;;-8.20;89.83;100885.19;31067659;28;20137;-83
